sensor_id;sensor_type;location;lat;lon;timestamp;P1;durP1;ratioP1;P2;durP2;ratioP2
20734;SDS011;10528;52.124;5.196;2023-08-01T00:02:22;5.53;;;2.72;;
20734;SDS011;10528;52.124;5.196;2023-08-01T00:04:49;7.40;;;2.60;;
20734;SDS011;10528;52.124;5.196;2023-08-01T00:07:16;6.00;;;2.40;;
20734;SDS011;10528;52.124;5.196;2023-08-01T00:09:42;6.88;;;2.70;;
20734;SDS011;10528;52.124;5.196;2023-08-01T00:12:09;5.38;;;2.10;;
20734;SDS011;10528;52.124;5.196;2023-08-01T00:14:36;4.13;;;2.17;;
20734;SDS011;10528;52.124;5.196;2023-08-01T00:17:03;6.82;;;2.80;;
20734;SDS011;10528;52.124;5.196;2023-08-01T00:19:31;5.95;;;2.53;;
20734;SDS011;10528;52.124;5.196;2023-08-01T00:21:58;6.95;;;2.40;;
20734;SDS011;10528;52.124;5.196;2023-08-01T00:24:25;7.75;;;2.67;;
20734;SDS011;10528;52.124;5.196;2023-08-01T00:26:52;5.43;;;2.55;;
20734;SDS011;10528;52.124;5.196;2023-08-01T00:29:22;8.73;;;2.20;;
20734;SDS011;10528;52.124;5.196;2023-08-01T00:31:49;4.57;;;1.90;;
20734;SDS011;10528;52.124;5.196;2023-08-01T00:34:16;5.90;;;2.00;;
20734;SDS011;10528;52.124;5.196;2023-08-01T00:36:43;7.15;;;2.13;;
20734;SDS011;10528;52.124;5.196;2023-08-01T00:39:10;5.53;;;2.10;;
20734;SDS011;10528;52.124;5.196;2023-08-01T00:41:37;6.07;;;2.33;;
20734;SDS011;10528;52.124;5.196;2023-08-01T00:44:04;5.07;;;2.05;;
20734;SDS011;10528;52.124;5.196;2023-08-01T00:46:31;6.30;;;2.70;;
20734;SDS011;10528;52.124;5.196;2023-08-01T00:48:59;5.43;;;2.30;;
20734;SDS011;10528;52.124;5.196;2023-08-01T00:51:26;6.90;;;2.30;;
20734;SDS011;10528;52.124;5.196;2023-08-01T00:53:56;6.10;;;2.40;;
20734;SDS011;10528;52.124;5.196;2023-08-01T00:56:24;5.38;;;2.20;;
20734;SDS011;10528;52.124;5.196;2023-08-01T00:58:51;3.55;;;2.17;;
20734;SDS011;10528;52.124;5.196;2023-08-01T01:01:18;4.00;;;2.30;;
20734;SDS011;10528;52.124;5.196;2023-08-01T01:03:46;5.95;;;2.53;;
20734;SDS011;10528;52.124;5.196;2023-08-01T01:06:14;5.25;;;2.20;;
20734;SDS011;10528;52.124;5.196;2023-08-01T01:08:58;5.93;;;2.80;;
20734;SDS011;10528;52.124;5.196;2023-08-01T01:11:25;5.90;;;2.35;;
20734;SDS011;10528;52.124;5.196;2023-08-01T01:13:52;5.78;;;2.15;;
20734;SDS011;10528;52.124;5.196;2023-08-01T01:16:20;7.45;;;2.90;;
20734;SDS011;10528;52.124;5.196;2023-08-01T01:18:48;7.43;;;3.17;;
20734;SDS011;10528;52.124;5.196;2023-08-01T01:21:14;5.10;;;3.00;;
20734;SDS011;10528;52.124;5.196;2023-08-01T01:23:41;6.90;;;2.88;;
20734;SDS011;10528;52.124;5.196;2023-08-01T01:26:10;6.20;;;3.25;;
20734;SDS011;10528;52.124;5.196;2023-08-01T01:28:38;7.78;;;3.00;;
20734;SDS011;10528;52.124;5.196;2023-08-01T01:31:07;6.88;;;3.28;;
20734;SDS011;10528;52.124;5.196;2023-08-01T01:33:34;6.68;;;2.75;;
20734;SDS011;10528;52.124;5.196;2023-08-01T01:36:01;8.85;;;3.40;;
20734;SDS011;10528;52.124;5.196;2023-08-01T01:38:29;6.10;;;3.38;;
20734;SDS011;10528;52.124;5.196;2023-08-01T01:40:55;6.78;;;3.42;;
20734;SDS011;10528;52.124;5.196;2023-08-01T01:43:22;7.40;;;3.83;;
20734;SDS011;10528;52.124;5.196;2023-08-01T01:45:49;7.55;;;3.63;;
20734;SDS011;10528;52.124;5.196;2023-08-01T01:48:16;8.77;;;3.70;;
20734;SDS011;10528;52.124;5.196;2023-08-01T01:50:43;9.95;;;3.30;;
20734;SDS011;10528;52.124;5.196;2023-08-01T01:53:10;6.05;;;2.95;;
20734;SDS011;10528;52.124;5.196;2023-08-01T01:55:38;10.18;;;3.72;;
20734;SDS011;10528;52.124;5.196;2023-08-01T01:58:06;8.77;;;3.45;;
20734;SDS011;10528;52.124;5.196;2023-08-01T02:00:33;9.95;;;3.40;;
20734;SDS011;10528;52.124;5.196;2023-08-01T02:03:00;9.90;;;3.20;;
20734;SDS011;10528;52.124;5.196;2023-08-01T02:05:29;8.45;;;3.53;;
20734;SDS011;10528;52.124;5.196;2023-08-01T02:07:56;4.93;;;2.80;;
20734;SDS011;10528;52.124;5.196;2023-08-01T02:10:23;8.30;;;3.65;;
20734;SDS011;10528;52.124;5.196;2023-08-01T02:12:52;7.90;;;3.80;;
20734;SDS011;10528;52.124;5.196;2023-08-01T02:15:18;8.88;;;3.22;;
20734;SDS011;10528;52.124;5.196;2023-08-01T02:17:45;9.40;;;3.60;;
20734;SDS011;10528;52.124;5.196;2023-08-01T02:20:12;6.68;;;3.08;;
20734;SDS011;10528;52.124;5.196;2023-08-01T02:22:39;8.20;;;3.33;;
20734;SDS011;10528;52.124;5.196;2023-08-01T02:25:07;7.20;;;3.30;;
20734;SDS011;10528;52.124;5.196;2023-08-01T02:27:34;8.55;;;3.50;;
20734;SDS011;10528;52.124;5.196;2023-08-01T02:30:01;8.68;;;3.75;;
20734;SDS011;10528;52.124;5.196;2023-08-01T02:32:28;9.02;;;4.13;;
20734;SDS011;10528;52.124;5.196;2023-08-01T02:34:57;8.20;;;3.80;;
20734;SDS011;10528;52.124;5.196;2023-08-01T02:37:24;8.85;;;3.90;;
20734;SDS011;10528;52.124;5.196;2023-08-01T02:39:51;7.50;;;3.85;;
20734;SDS011;10528;52.124;5.196;2023-08-01T02:42:18;9.02;;;3.92;;
20734;SDS011;10528;52.124;5.196;2023-08-01T02:44:45;7.72;;;3.03;;
20734;SDS011;10528;52.124;5.196;2023-08-01T02:47:12;7.90;;;3.10;;
20734;SDS011;10528;52.124;5.196;2023-08-01T02:49:39;8.10;;;3.63;;
20734;SDS011;10528;52.124;5.196;2023-08-01T02:52:06;7.00;;;3.03;;
20734;SDS011;10528;52.124;5.196;2023-08-01T02:54:33;4.50;;;2.70;;
20734;SDS011;10528;52.124;5.196;2023-08-01T02:57:00;6.13;;;2.60;;
20734;SDS011;10528;52.124;5.196;2023-08-01T02:59:27;6.50;;;2.42;;
20734;SDS011;10528;52.124;5.196;2023-08-01T03:01:54;6.70;;;2.17;;
20734;SDS011;10528;52.124;5.196;2023-08-01T03:04:20;4.93;;;2.45;;
20734;SDS011;10528;52.124;5.196;2023-08-01T03:07:06;5.20;;;2.25;;
20734;SDS011;10528;52.124;5.196;2023-08-01T03:09:33;6.85;;;2.35;;
20734;SDS011;10528;52.124;5.196;2023-08-01T03:11:59;5.40;;;2.10;;
20734;SDS011;10528;52.124;5.196;2023-08-01T03:14:26;7.38;;;2.20;;
20734;SDS011;10528;52.124;5.196;2023-08-01T03:16:53;5.30;;;2.15;;
20734;SDS011;10528;52.124;5.196;2023-08-01T03:19:20;8.13;;;2.22;;
20734;SDS011;10528;52.124;5.196;2023-08-01T03:21:47;6.05;;;2.53;;
20734;SDS011;10528;52.124;5.196;2023-08-01T03:24:14;6.30;;;2.63;;
20734;SDS011;10528;52.124;5.196;2023-08-01T03:26:41;7.80;;;3.00;;
20734;SDS011;10528;52.124;5.196;2023-08-01T03:29:08;7.80;;;3.67;;
20734;SDS011;10528;52.124;5.196;2023-08-01T03:31:35;9.73;;;3.50;;
20734;SDS011;10528;52.124;5.196;2023-08-01T03:34:01;7.95;;;3.90;;
20734;SDS011;10528;52.124;5.196;2023-08-01T03:36:29;7.88;;;3.80;;
20734;SDS011;10528;52.124;5.196;2023-08-01T03:38:56;8.02;;;3.80;;
20734;SDS011;10528;52.124;5.196;2023-08-01T03:41:23;7.82;;;4.03;;
20734;SDS011;10528;52.124;5.196;2023-08-01T03:43:50;12.75;;;4.75;;
20734;SDS011;10528;52.124;5.196;2023-08-01T03:46:16;9.75;;;5.18;;
20734;SDS011;10528;52.124;5.196;2023-08-01T03:48:43;11.68;;;3.85;;
20734;SDS011;10528;52.124;5.196;2023-08-01T03:51:10;10.25;;;4.07;;
20734;SDS011;10528;52.124;5.196;2023-08-01T03:53:37;7.60;;;3.70;;
20734;SDS011;10528;52.124;5.196;2023-08-01T03:56:04;9.38;;;3.80;;
20734;SDS011;10528;52.124;5.196;2023-08-01T03:58:31;9.68;;;4.10;;
20734;SDS011;10528;52.124;5.196;2023-08-01T04:00:58;10.88;;;4.00;;
20734;SDS011;10528;52.124;5.196;2023-08-01T04:03:25;10.30;;;4.10;;
20734;SDS011;10528;52.124;5.196;2023-08-01T04:05:53;12.98;;;4.68;;
20734;SDS011;10528;52.124;5.196;2023-08-01T04:08:20;11.15;;;3.88;;
20734;SDS011;10528;52.124;5.196;2023-08-01T04:10:47;10.50;;;4.22;;
20734;SDS011;10528;52.124;5.196;2023-08-01T04:13:17;8.18;;;3.75;;
20734;SDS011;10528;52.124;5.196;2023-08-01T04:15:44;11.70;;;4.05;;
20734;SDS011;10528;52.124;5.196;2023-08-01T04:18:11;12.07;;;4.00;;
20734;SDS011;10528;52.124;5.196;2023-08-01T04:20:38;10.90;;;3.78;;
20734;SDS011;10528;52.124;5.196;2023-08-01T04:23:06;7.88;;;3.75;;
20734;SDS011;10528;52.124;5.196;2023-08-01T04:25:33;11.68;;;4.35;;
20734;SDS011;10528;52.124;5.196;2023-08-01T04:27:59;8.55;;;4.63;;
20734;SDS011;10528;52.124;5.196;2023-08-01T04:30:26;13.95;;;4.28;;
20734;SDS011;10528;52.124;5.196;2023-08-01T04:32:53;9.73;;;4.47;;
20734;SDS011;10528;52.124;5.196;2023-08-01T04:35:20;11.23;;;4.47;;
20734;SDS011;10528;52.124;5.196;2023-08-01T04:37:47;8.45;;;4.32;;
20734;SDS011;10528;52.124;5.196;2023-08-01T04:40:14;8.98;;;4.00;;
20734;SDS011;10528;52.124;5.196;2023-08-01T04:42:41;10.23;;;4.43;;
20734;SDS011;10528;52.124;5.196;2023-08-01T04:45:08;13.07;;;4.38;;
20734;SDS011;10528;52.124;5.196;2023-08-01T04:47:35;9.07;;;4.40;;
20734;SDS011;10528;52.124;5.196;2023-08-01T04:50:02;11.30;;;4.10;;
20734;SDS011;10528;52.124;5.196;2023-08-01T04:52:30;10.30;;;4.15;;
20734;SDS011;10528;52.124;5.196;2023-08-01T04:54:56;12.50;;;4.43;;
20734;SDS011;10528;52.124;5.196;2023-08-01T04:57:23;11.07;;;4.88;;
20734;SDS011;10528;52.124;5.196;2023-08-01T04:59:50;8.82;;;4.15;;
20734;SDS011;10528;52.124;5.196;2023-08-01T05:02:17;14.10;;;4.47;;
20734;SDS011;10528;52.124;5.196;2023-08-01T05:04:44;14.73;;;4.95;;
20734;SDS011;10528;52.124;5.196;2023-08-01T05:07:11;8.45;;;3.95;;
20734;SDS011;10528;52.124;5.196;2023-08-01T05:09:38;13.50;;;4.85;;
20734;SDS011;10528;52.124;5.196;2023-08-01T05:12:05;11.68;;;5.25;;
20734;SDS011;10528;52.124;5.196;2023-08-01T05:14:33;16.42;;;4.93;;
20734;SDS011;10528;52.124;5.196;2023-08-01T05:17:00;10.50;;;3.85;;
20734;SDS011;10528;52.124;5.196;2023-08-01T05:19:27;9.82;;;4.30;;
20734;SDS011;10528;52.124;5.196;2023-08-01T05:21:53;9.38;;;4.10;;
20734;SDS011;10528;52.124;5.196;2023-08-01T05:24:21;8.23;;;3.63;;
20734;SDS011;10528;52.124;5.196;2023-08-01T05:26:48;12.43;;;3.95;;
20734;SDS011;10528;52.124;5.196;2023-08-01T05:29:15;10.90;;;4.53;;
20734;SDS011;10528;52.124;5.196;2023-08-01T05:31:42;10.43;;;4.00;;
20734;SDS011;10528;52.124;5.196;2023-08-01T05:34:09;10.05;;;2.88;;
20734;SDS011;10528;52.124;5.196;2023-08-01T05:36:36;9.80;;;3.25;;
20734;SDS011;10528;52.124;5.196;2023-08-01T05:39:03;7.25;;;2.97;;
20734;SDS011;10528;52.124;5.196;2023-08-01T05:41:30;12.15;;;3.63;;
20734;SDS011;10528;52.124;5.196;2023-08-01T05:43:58;9.35;;;3.20;;
20734;SDS011;10528;52.124;5.196;2023-08-01T05:46:25;8.95;;;2.88;;
20734;SDS011;10528;52.124;5.196;2023-08-01T05:48:52;7.35;;;2.97;;
20734;SDS011;10528;52.124;5.196;2023-08-01T05:51:19;7.53;;;2.90;;
20734;SDS011;10528;52.124;5.196;2023-08-01T05:53:46;12.80;;;3.47;;
20734;SDS011;10528;52.124;5.196;2023-08-01T05:56:13;10.27;;;3.80;;
20734;SDS011;10528;52.124;5.196;2023-08-01T05:58:40;7.63;;;2.90;;
20734;SDS011;10528;52.124;5.196;2023-08-01T06:01:07;9.20;;;3.25;;
20734;SDS011;10528;52.124;5.196;2023-08-01T06:03:37;11.60;;;3.47;;
20734;SDS011;10528;52.124;5.196;2023-08-01T06:06:04;11.60;;;3.40;;
20734;SDS011;10528;52.124;5.196;2023-08-01T06:08:31;5.85;;;2.88;;
20734;SDS011;10528;52.124;5.196;2023-08-01T06:10:58;8.25;;;3.20;;
20734;SDS011;10528;52.124;5.196;2023-08-01T06:13:25;7.35;;;3.50;;
20734;SDS011;10528;52.124;5.196;2023-08-01T06:15:53;8.45;;;3.03;;
20734;SDS011;10528;52.124;5.196;2023-08-01T06:18:20;7.00;;;2.92;;
20734;SDS011;10528;52.124;5.196;2023-08-01T06:20:48;11.35;;;3.47;;
20734;SDS011;10528;52.124;5.196;2023-08-01T06:23:15;8.68;;;3.10;;
20734;SDS011;10528;52.124;5.196;2023-08-01T06:25:42;8.27;;;2.78;;
20734;SDS011;10528;52.124;5.196;2023-08-01T06:28:09;8.52;;;2.75;;
20734;SDS011;10528;52.124;5.196;2023-08-01T06:30:36;8.77;;;2.55;;
20734;SDS011;10528;52.124;5.196;2023-08-01T06:33:03;12.45;;;3.00;;
20734;SDS011;10528;52.124;5.196;2023-08-01T06:35:30;8.05;;;2.67;;
20734;SDS011;10528;52.124;5.196;2023-08-01T06:37:57;8.35;;;3.10;;
20734;SDS011;10528;52.124;5.196;2023-08-01T06:40:24;11.50;;;2.97;;
20734;SDS011;10528;52.124;5.196;2023-08-01T06:42:51;7.75;;;2.60;;
20734;SDS011;10528;52.124;5.196;2023-08-01T06:45:18;6.97;;;2.90;;
20734;SDS011;10528;52.124;5.196;2023-08-01T06:47:45;9.32;;;3.22;;
20734;SDS011;10528;52.124;5.196;2023-08-01T06:50:12;7.57;;;2.47;;
20734;SDS011;10528;52.124;5.196;2023-08-01T06:52:39;7.40;;;2.75;;
20734;SDS011;10528;52.124;5.196;2023-08-01T06:55:06;8.68;;;2.83;;
20734;SDS011;10528;52.124;5.196;2023-08-01T06:57:33;12.13;;;3.65;;
20734;SDS011;10528;52.124;5.196;2023-08-01T07:00:00;9.25;;;2.72;;
20734;SDS011;10528;52.124;5.196;2023-08-01T07:02:27;8.50;;;2.65;;
20734;SDS011;10528;52.124;5.196;2023-08-01T07:04:54;10.98;;;2.65;;
20734;SDS011;10528;52.124;5.196;2023-08-01T07:07:21;8.38;;;2.67;;
20734;SDS011;10528;52.124;5.196;2023-08-01T07:09:48;6.28;;;2.05;;
20734;SDS011;10528;52.124;5.196;2023-08-01T07:12:15;8.73;;;2.53;;
20734;SDS011;10528;52.124;5.196;2023-08-01T07:14:42;5.80;;;2.50;;
20734;SDS011;10528;52.124;5.196;2023-08-01T07:17:09;9.10;;;2.55;;
20734;SDS011;10528;52.124;5.196;2023-08-01T07:19:36;8.60;;;2.38;;
20734;SDS011;10528;52.124;5.196;2023-08-01T07:22:03;8.07;;;2.60;;
20734;SDS011;10528;52.124;5.196;2023-08-01T07:24:30;6.93;;;2.30;;
20734;SDS011;10528;52.124;5.196;2023-08-01T07:26:57;7.03;;;2.90;;
20734;SDS011;10528;52.124;5.196;2023-08-01T07:29:23;6.95;;;2.75;;
20734;SDS011;10528;52.124;5.196;2023-08-01T07:31:50;7.43;;;2.63;;
20734;SDS011;10528;52.124;5.196;2023-08-01T07:34:17;10.10;;;2.30;;
20734;SDS011;10528;52.124;5.196;2023-08-01T07:36:45;7.05;;;2.70;;
20734;SDS011;10528;52.124;5.196;2023-08-01T07:39:16;7.25;;;2.67;;
20734;SDS011;10528;52.124;5.196;2023-08-01T07:41:43;10.90;;;2.78;;
20734;SDS011;10528;52.124;5.196;2023-08-01T07:44:10;7.07;;;2.38;;
20734;SDS011;10528;52.124;5.196;2023-08-01T07:46:37;16.10;;;3.20;;
20734;SDS011;10528;52.124;5.196;2023-08-01T07:49:05;9.43;;;2.72;;
20734;SDS011;10528;52.124;5.196;2023-08-01T07:51:32;7.85;;;2.60;;
20734;SDS011;10528;52.124;5.196;2023-08-01T07:54:00;8.85;;;2.92;;
20734;SDS011;10528;52.124;5.196;2023-08-01T07:56:27;10.32;;;2.80;;
20734;SDS011;10528;52.124;5.196;2023-08-01T07:58:54;9.02;;;2.55;;
20734;SDS011;10528;52.124;5.196;2023-08-01T08:01:21;5.22;;;2.30;;
20734;SDS011;10528;52.124;5.196;2023-08-01T08:03:48;7.45;;;2.20;;
20734;SDS011;10528;52.124;5.196;2023-08-01T08:06:15;5.85;;;2.10;;
20734;SDS011;10528;52.124;5.196;2023-08-01T08:08:42;6.68;;;2.25;;
20734;SDS011;10528;52.124;5.196;2023-08-01T08:11:09;8.43;;;2.28;;
20734;SDS011;10528;52.124;5.196;2023-08-01T08:13:36;6.43;;;1.63;;
20734;SDS011;10528;52.124;5.196;2023-08-01T08:16:03;6.60;;;1.70;;
20734;SDS011;10528;52.124;5.196;2023-08-01T08:18:31;3.72;;;1.60;;
20734;SDS011;10528;52.124;5.196;2023-08-01T08:20:58;6.28;;;2.00;;
20734;SDS011;10528;52.124;5.196;2023-08-01T08:23:25;5.80;;;1.85;;
20734;SDS011;10528;52.124;5.196;2023-08-01T08:25:52;8.23;;;1.70;;
20734;SDS011;10528;52.124;5.196;2023-08-01T08:28:27;4.90;;;1.67;;
20734;SDS011;10528;52.124;5.196;2023-08-01T08:30:56;9.85;;;2.17;;
20734;SDS011;10528;52.124;5.196;2023-08-01T08:33:23;5.70;;;1.70;;
20734;SDS011;10528;52.124;5.196;2023-08-01T08:35:50;5.38;;;2.10;;
20734;SDS011;10528;52.124;5.196;2023-08-01T08:38:18;5.35;;;1.85;;
20734;SDS011;10528;52.124;5.196;2023-08-01T08:43:53;4.93;;;1.60;;
20734;SDS011;10528;52.124;5.196;2023-08-01T08:46:28;7.35;;;1.95;;
20734;SDS011;10528;52.124;5.196;2023-08-01T08:48:56;5.45;;;1.65;;
20734;SDS011;10528;52.124;5.196;2023-08-01T08:51:26;6.30;;;1.92;;
20734;SDS011;10528;52.124;5.196;2023-08-01T08:53:56;5.72;;;2.03;;
20734;SDS011;10528;52.124;5.196;2023-08-01T08:56:26;4.35;;;1.48;;
20734;SDS011;10528;52.124;5.196;2023-08-01T08:58:55;6.85;;;1.55;;
20734;SDS011;10528;52.124;5.196;2023-08-01T09:01:23;6.32;;;2.00;;
20734;SDS011;10528;52.124;5.196;2023-08-01T09:03:50;4.90;;;1.77;;
20734;SDS011;10528;52.124;5.196;2023-08-01T09:06:19;7.22;;;2.22;;
20734;SDS011;10528;52.124;5.196;2023-08-01T09:08:51;6.70;;;1.98;;
20734;SDS011;10528;52.124;5.196;2023-08-01T09:11:28;5.43;;;1.70;;
20734;SDS011;10528;52.124;5.196;2023-08-01T09:13:55;8.05;;;2.22;;
20734;SDS011;10528;52.124;5.196;2023-08-01T09:16:22;5.75;;;1.98;;
20734;SDS011;10528;52.124;5.196;2023-08-01T09:18:49;9.50;;;2.10;;
20734;SDS011;10528;52.124;5.196;2023-08-01T09:21:18;7.43;;;2.05;;
20734;SDS011;10528;52.124;5.196;2023-08-01T09:23:46;7.78;;;2.00;;
20734;SDS011;10528;52.124;5.196;2023-08-01T09:26:14;6.57;;;2.20;;
20734;SDS011;10528;52.124;5.196;2023-08-01T09:28:42;7.72;;;2.15;;
20734;SDS011;10528;52.124;5.196;2023-08-01T09:31:10;8.32;;;2.10;;
20734;SDS011;10528;52.124;5.196;2023-08-01T09:33:38;6.18;;;2.00;;
20734;SDS011;10528;52.124;5.196;2023-08-01T09:36:07;10.95;;;2.15;;
20734;SDS011;10528;52.124;5.196;2023-08-01T09:38:36;7.78;;;2.10;;
20734;SDS011;10528;52.124;5.196;2023-08-01T09:41:04;8.57;;;2.92;;
20734;SDS011;10528;52.124;5.196;2023-08-01T09:43:34;6.85;;;2.17;;
20734;SDS011;10528;52.124;5.196;2023-08-01T09:46:03;6.90;;;1.90;;
20734;SDS011;10528;52.124;5.196;2023-08-01T09:48:33;6.85;;;2.30;;
20734;SDS011;10528;52.124;5.196;2023-08-01T09:51:13;7.97;;;2.10;;
20734;SDS011;10528;52.124;5.196;2023-08-01T09:53:51;5.65;;;1.77;;
20734;SDS011;10528;52.124;5.196;2023-08-01T09:56:23;8.35;;;1.83;;
20734;SDS011;10528;52.124;5.196;2023-08-01T09:58:55;7.13;;;1.77;;
20734;SDS011;10528;52.124;5.196;2023-08-01T10:01:23;7.55;;;2.08;;
20734;SDS011;10528;52.124;5.196;2023-08-01T10:03:52;4.75;;;1.55;;
20734;SDS011;10528;52.124;5.196;2023-08-01T10:06:23;5.13;;;1.73;;
20734;SDS011;10528;52.124;5.196;2023-08-01T10:08:59;4.85;;;1.52;;
20734;SDS011;10528;52.124;5.196;2023-08-01T10:11:27;6.10;;;1.70;;
20734;SDS011;10528;52.124;5.196;2023-08-01T10:14:02;5.65;;;1.95;;
20734;SDS011;10528;52.124;5.196;2023-08-01T10:16:29;6.55;;;1.60;;
20734;SDS011;10528;52.124;5.196;2023-08-01T10:18:57;5.97;;;2.08;;
20734;SDS011;10528;52.124;5.196;2023-08-01T10:21:26;4.82;;;1.38;;
20734;SDS011;10528;52.124;5.196;2023-08-01T10:23:55;6.28;;;2.45;;
20734;SDS011;10528;52.124;5.196;2023-08-01T10:26:24;6.97;;;1.70;;
20734;SDS011;10528;52.124;5.196;2023-08-01T10:28:52;8.63;;;1.67;;
20734;SDS011;10528;52.124;5.196;2023-08-01T10:31:19;8.95;;;2.00;;
20734;SDS011;10528;52.124;5.196;2023-08-01T10:33:48;9.95;;;2.05;;
20734;SDS011;10528;52.124;5.196;2023-08-01T10:36:17;4.07;;;1.63;;
20734;SDS011;10528;52.124;5.196;2023-08-01T10:38:49;7.18;;;1.77;;
20734;SDS011;10528;52.124;5.196;2023-08-01T10:44:05;6.82;;;1.80;;
20734;SDS011;10528;52.124;5.196;2023-08-01T10:46:49;4.03;;;1.77;;
20734;SDS011;10528;52.124;5.196;2023-08-01T10:49:18;4.75;;;1.15;;
20734;SDS011;10528;52.124;5.196;2023-08-01T10:51:50;3.88;;;1.30;;
20734;SDS011;10528;52.124;5.196;2023-08-01T10:54:18;5.53;;;1.48;;
20734;SDS011;10528;52.124;5.196;2023-08-01T10:56:52;5.85;;;1.70;;
20734;SDS011;10528;52.124;5.196;2023-08-01T10:59:24;5.75;;;1.40;;
20734;SDS011;10528;52.124;5.196;2023-08-01T11:01:58;4.53;;;1.50;;
20734;SDS011;10528;52.124;5.196;2023-08-01T11:04:26;4.15;;;1.30;;
20734;SDS011;10528;52.124;5.196;2023-08-01T11:06:53;7.78;;;2.00;;
20734;SDS011;10528;52.124;5.196;2023-08-01T11:09:23;6.32;;;1.95;;
20734;SDS011;10528;52.124;5.196;2023-08-01T11:11:55;6.43;;;1.98;;
20734;SDS011;10528;52.124;5.196;2023-08-01T11:14:26;7.07;;;1.90;;
20734;SDS011;10528;52.124;5.196;2023-08-01T11:16:55;5.88;;;1.55;;
20734;SDS011;10528;52.124;5.196;2023-08-01T11:19:25;5.32;;;1.85;;
20734;SDS011;10528;52.124;5.196;2023-08-01T11:21:55;6.55;;;1.40;;
20734;SDS011;10528;52.124;5.196;2023-08-01T11:24:24;7.10;;;1.70;;
20734;SDS011;10528;52.124;5.196;2023-08-01T11:26:53;3.38;;;1.42;;
20734;SDS011;10528;52.124;5.196;2023-08-01T11:29:20;6.30;;;1.30;;
20734;SDS011;10528;52.124;5.196;2023-08-01T11:31:58;5.85;;;1.80;;
20734;SDS011;10528;52.124;5.196;2023-08-01T11:34:26;6.47;;;2.05;;
20734;SDS011;10528;52.124;5.196;2023-08-01T11:36:53;6.60;;;1.40;;
20734;SDS011;10528;52.124;5.196;2023-08-01T11:39:20;3.92;;;1.63;;
20734;SDS011;10528;52.124;5.196;2023-08-01T11:41:48;5.32;;;1.67;;
20734;SDS011;10528;52.124;5.196;2023-08-01T11:44:16;8.20;;;1.77;;
20734;SDS011;10528;52.124;5.196;2023-08-01T11:46:43;3.33;;;1.05;;
20734;SDS011;10528;52.124;5.196;2023-08-01T11:49:13;6.47;;;1.58;;
20734;SDS011;10528;52.124;5.196;2023-08-01T11:51:42;5.93;;;1.55;;
20734;SDS011;10528;52.124;5.196;2023-08-01T11:54:11;5.40;;;1.60;;
20734;SDS011;10528;52.124;5.196;2023-08-01T11:56:40;6.10;;;2.08;;
20734;SDS011;10528;52.124;5.196;2023-08-01T12:01:39;4.97;;;1.50;;
20734;SDS011;10528;52.124;5.196;2023-08-01T12:04:11;6.90;;;1.58;;
20734;SDS011;10528;52.124;5.196;2023-08-01T12:06:50;6.90;;;2.05;;
20734;SDS011;10528;52.124;5.196;2023-08-01T12:09:18;7.70;;;1.88;;
20734;SDS011;10528;52.124;5.196;2023-08-01T12:11:46;8.38;;;1.65;;
20734;SDS011;10528;52.124;5.196;2023-08-01T12:14:28;5.88;;;1.70;;
20734;SDS011;10528;52.124;5.196;2023-08-01T12:16:56;6.28;;;1.65;;
20734;SDS011;10528;52.124;5.196;2023-08-01T12:19:22;6.07;;;1.58;;
20734;SDS011;10528;52.124;5.196;2023-08-01T12:21:50;3.92;;;1.58;;
20734;SDS011;10528;52.124;5.196;2023-08-01T12:24:17;7.25;;;1.88;;
20734;SDS011;10528;52.124;5.196;2023-08-01T12:26:44;6.13;;;1.60;;
20734;SDS011;10528;52.124;5.196;2023-08-01T12:29:11;8.35;;;1.60;;
20734;SDS011;10528;52.124;5.196;2023-08-01T12:31:38;9.90;;;2.25;;
20734;SDS011;10528;52.124;5.196;2023-08-01T12:34:05;6.97;;;1.23;;
20734;SDS011;10528;52.124;5.196;2023-08-01T12:36:32;6.22;;;1.50;;
20734;SDS011;10528;52.124;5.196;2023-08-01T12:38:59;5.85;;;1.52;;
20734;SDS011;10528;52.124;5.196;2023-08-01T12:41:26;4.47;;;1.17;;
20734;SDS011;10528;52.124;5.196;2023-08-01T12:43:53;3.67;;;1.20;;
20734;SDS011;10528;52.124;5.196;2023-08-01T12:46:20;7.72;;;2.05;;
20734;SDS011;10528;52.124;5.196;2023-08-01T12:48:47;4.55;;;1.58;;
20734;SDS011;10528;52.124;5.196;2023-08-01T12:51:14;6.53;;;1.38;;
20734;SDS011;10528;52.124;5.196;2023-08-01T12:53:41;6.15;;;1.45;;
20734;SDS011;10528;52.124;5.196;2023-08-01T12:56:11;7.13;;;1.67;;
20734;SDS011;10528;52.124;5.196;2023-08-01T12:58:38;7.38;;;2.20;;
20734;SDS011;10528;52.124;5.196;2023-08-01T13:01:05;6.78;;;1.83;;
20734;SDS011;10528;52.124;5.196;2023-08-01T13:03:33;8.38;;;1.80;;
20734;SDS011;10528;52.124;5.196;2023-08-01T13:06:00;7.68;;;1.90;;
20734;SDS011;10528;52.124;5.196;2023-08-01T13:08:27;6.47;;;1.90;;
20734;SDS011;10528;52.124;5.196;2023-08-01T13:10:55;9.40;;;2.05;;
20734;SDS011;10528;52.124;5.196;2023-08-01T13:13:25;10.32;;;2.33;;
20734;SDS011;10528;52.124;5.196;2023-08-01T13:15:52;8.23;;;1.92;;
20734;SDS011;10528;52.124;5.196;2023-08-01T13:18:19;7.22;;;2.10;;
20734;SDS011;10528;52.124;5.196;2023-08-01T13:20:46;4.85;;;1.75;;
20734;SDS011;10528;52.124;5.196;2023-08-01T13:23:13;7.57;;;2.70;;
20734;SDS011;10528;52.124;5.196;2023-08-01T13:25:40;5.18;;;1.77;;
20734;SDS011;10528;52.124;5.196;2023-08-01T13:28:07;6.53;;;1.73;;
20734;SDS011;10528;52.124;5.196;2023-08-01T13:30:34;6.78;;;1.88;;
20734;SDS011;10528;52.124;5.196;2023-08-01T13:33:01;4.50;;;1.48;;
20734;SDS011;10528;52.124;5.196;2023-08-01T13:35:28;5.15;;;1.40;;
20734;SDS011;10528;52.124;5.196;2023-08-01T13:37:55;2.97;;;1.55;;
20734;SDS011;10528;52.124;5.196;2023-08-01T13:40:24;6.10;;;1.48;;
20734;SDS011;10528;52.124;5.196;2023-08-01T13:42:52;5.88;;;1.25;;
20734;SDS011;10528;52.124;5.196;2023-08-01T13:45:19;5.50;;;1.77;;
20734;SDS011;10528;52.124;5.196;2023-08-01T13:47:46;11.32;;;1.60;;
20734;SDS011;10528;52.124;5.196;2023-08-01T13:50:13;7.40;;;1.63;;
20734;SDS011;10528;52.124;5.196;2023-08-01T13:52:40;5.35;;;1.58;;
20734;SDS011;10528;52.124;5.196;2023-08-01T13:55:08;3.97;;;1.40;;
20734;SDS011;10528;52.124;5.196;2023-08-01T13:57:36;7.03;;;1.65;;
20734;SDS011;10528;52.124;5.196;2023-08-01T14:00:03;6.07;;;1.42;;
20734;SDS011;10528;52.124;5.196;2023-08-01T14:02:41;4.97;;;1.63;;
20734;SDS011;10528;52.124;5.196;2023-08-01T14:05:09;7.85;;;1.88;;
20734;SDS011;10528;52.124;5.196;2023-08-01T14:07:36;4.85;;;1.65;;
20734;SDS011;10528;52.124;5.196;2023-08-01T14:10:07;5.43;;;1.77;;
20734;SDS011;10528;52.124;5.196;2023-08-01T14:12:35;7.60;;;1.70;;
20734;SDS011;10528;52.124;5.196;2023-08-01T14:15:02;6.57;;;1.63;;
20734;SDS011;10528;52.124;5.196;2023-08-01T14:17:30;7.40;;;1.83;;
20734;SDS011;10528;52.124;5.196;2023-08-01T14:19:57;5.28;;;1.42;;
20734;SDS011;10528;52.124;5.196;2023-08-01T14:22:25;5.47;;;1.50;;
20734;SDS011;10528;52.124;5.196;2023-08-01T14:24:52;6.03;;;1.30;;
20734;SDS011;10528;52.124;5.196;2023-08-01T14:27:19;4.00;;;1.08;;
20734;SDS011;10528;52.124;5.196;2023-08-01T14:29:46;7.35;;;1.63;;
20734;SDS011;10528;52.124;5.196;2023-08-01T14:32:13;6.70;;;1.60;;
20734;SDS011;10528;52.124;5.196;2023-08-01T14:34:43;5.55;;;1.60;;
20734;SDS011;10528;52.124;5.196;2023-08-01T14:37:10;6.18;;;1.73;;
20734;SDS011;10528;52.124;5.196;2023-08-01T14:39:37;3.20;;;1.35;;
20734;SDS011;10528;52.124;5.196;2023-08-01T14:42:04;4.32;;;1.73;;
20734;SDS011;10528;52.124;5.196;2023-08-01T14:44:32;4.32;;;1.20;;
20734;SDS011;10528;52.124;5.196;2023-08-01T14:46:59;5.18;;;1.45;;
20734;SDS011;10528;52.124;5.196;2023-08-01T14:49:26;6.55;;;2.22;;
20734;SDS011;10528;52.124;5.196;2023-08-01T14:51:55;6.53;;;1.63;;
20734;SDS011;10528;52.124;5.196;2023-08-01T14:54:22;5.57;;;1.52;;
20734;SDS011;10528;52.124;5.196;2023-08-01T14:57:06;4.13;;;0.82;;
20734;SDS011;10528;52.124;5.196;2023-08-01T14:59:34;2.97;;;1.13;;